Time;durP1;ratioP1;P1;durP2;ratioP2;P2;SDS_P1;SDS_P2;PMS_P1;PMS_P2;Temp;Humidity;BMP_temperature;BMP_pressure;BME280_temperature;BME280_humidity;BME280_pressure;Samples;Min_cycle;Max_cycle;Signal;HPM_P1;HPM_P2
2021/06/12 00:00:51;;;;;;;8.10;3.35;;;18.10;99.90;;;;;;5061035;28;20036;-76
2021/06/12 00:03:17;;;;;;;8.73;3.70;;;18.00;99.90;;;;;;5060544;28;20447;-77
2021/06/12 00:05:43;;;;;;;7.78;3.70;;;18.20;99.90;;;;;;5078367;28;20031;-77
2021/06/12 00:08:08;;;;;;;8.63;4.15;;;18.00;99.90;;;;;;5078374;28;20155;-77
2021/06/12 00:10:37;;;;;;;8.52;3.70;;;18.00;99.90;;;;;;5078839;28;20020;-78
2021/06/12 00:13:04;;;;;;;8.65;3.38;;;18.50;99.90;;;;;;5060015;28;20385;-78
2021/06/12 00:15:31;;;;;;;12.10;3.75;;;18.00;99.90;;;;;;5060399;28;20047;-77
2021/06/12 00:17:57;;;;;;;9.80;4.68;;;18.00;99.90;;;;;;5078084;28;20025;-78
2021/06/12 00:20:26;;;;;;;8.23;3.35;;;18.80;99.90;;;;;;5078312;28;20036;-77
2021/06/12 00:22:52;;;;;;;10.25;3.65;;;18.00;99.90;;;;;;5080539;28;20025;-79
2021/06/12 00:25:22;;;;;;;7.90;3.35;;;18.00;99.90;;;;;;5061046;28;20111;-77
2021/06/12 00:27:48;;;;;;;11.43;3.65;;;17.90;99.90;;;;;;5058939;28;20039;-78
2021/06/12 00:30:14;;;;;;;11.65;3.55;;;17.90;99.90;;;;;;5065365;28;20497;-79
2021/06/12 00:32:41;;;;;;;8.00;3.03;;;17.90;99.90;;;;;;5063500;28;20024;-77
2021/06/12 00:35:09;;;;;;;8.80;3.60;;;17.80;99.90;;;;;;5157091;22;20052;-78
2021/06/12 00:37:34;;;;;;;7.30;3.67;;;17.80;99.90;;;;;;5060862;28;20025;-79
2021/06/12 00:40:00;;;;;;;6.82;3.38;;;17.80;99.90;;;;;;5075326;28;20028;-77
2021/06/12 00:42:26;;;;;;;7.20;2.50;;;17.90;99.90;;;;;;5055059;28;20115;-79
2021/06/12 00:44:52;;;;;;;7.82;3.10;;;17.80;99.90;;;;;;5076731;28;20119;-78
2021/06/12 00:47:18;;;;;;;7.28;2.80;;;17.80;99.90;;;;;;5058253;28;20060;-79
2021/06/12 00:49:43;;;;;;;13.23;3.20;;;17.80;99.90;;;;;;5058093;28;20028;-79
2021/06/12 00:52:09;;;;;;;10.05;3.00;;;17.90;99.90;;;;;;5058516;28;20024;-78
2021/06/12 00:54:36;;;;;;;8.75;2.72;;;17.90;99.90;;;;;;5076085;28;20461;-78
2021/06/12 00:57:03;;;;;;;8.57;3.25;;;17.90;99.90;;;;;;5057974;28;20028;-78
2021/06/12 00:59:29;;;;;;;10.13;3.35;;;17.90;99.90;;;;;;5076302;28;20016;-79
2021/06/12 01:01:55;;;;;;;10.20;3.53;;;17.90;99.90;;;;;;5076608;28;20504;-79
2021/06/12 01:04:21;;;;;;;14.10;3.55;;;17.80;99.90;;;;;;5058002;28;20016;-79
2021/06/12 01:06:50;;;;;;;9.35;4.20;;;17.80;99.90;;;;;;5057575;28;20107;-79
2021/06/12 01:09:21;;;;;;;8.98;3.17;;;17.70;99.90;;;;;;5075573;28;20539;-79
2021/06/12 01:12:30;;;;;;;7.90;3.10;;;17.70;99.90;;;;;;5075753;28;20025;-79
2021/06/12 01:15:04;;;;;;;8.48;2.38;;;17.70;99.90;;;;;;5056833;28;20024;-78
2021/06/12 01:17:29;;;;;;;9.63;3.45;;;17.70;99.90;;;;;;5075098;28;20028;-78
2021/06/12 01:20:13;;;;;;;13.50;3.85;;;17.70;99.90;;;;;;5075698;28;20040;-78
2021/06/12 01:22:47;;;;;;;11.68;3.53;;;17.70;99.90;;;;;;5075645;28;20032;-78
2021/06/12 01:25:28;;;;;;;13.40;3.92;;;17.70;99.90;;;;;;5075544;28;20054;-79
2021/06/12 01:28:00;;;;;;;7.28;2.58;;;17.80;99.90;;;;;;5075312;28;20569;-78
2021/06/12 01:30:32;;;;;;;13.15;3.78;;;17.80;99.90;;;;;;5076181;28;20078;-78
2021/06/12 01:33:03;;;;;;;8.95;3.17;;;17.70;99.90;;;;;;5058066;28;20032;-79
2021/06/12 01:35:35;;;;;;;8.77;3.28;;;17.90;99.90;;;;;;5075304;28;20175;-78
2021/06/12 01:38:05;;;;;;;14.30;3.58;;;17.80;99.90;;;;;;5075048;28;20074;-78
2021/06/12 01:40:36;;;;;;;8.52;3.20;;;17.70;99.90;;;;;;5075081;28;20025;-78
2021/06/12 01:43:07;;;;;;;12.85;3.05;;;17.70;99.90;;;;;;5057454;28;20021;-79
2021/06/12 01:45:33;;;;;;;8.40;2.75;;;17.70;99.90;;;;;;5075031;28;20017;-79
2021/06/12 01:48:00;;;;;;;9.13;2.58;;;17.70;99.90;;;;;;5075475;28;20027;-79
2021/06/12 01:50:27;;;;;;;12.73;2.90;;;17.70;99.90;;;;;;5056959;28;20385;-78
2021/06/12 01:52:55;;;;;;;10.18;2.70;;;17.70;99.90;;;;;;5075596;28;20488;-78
2021/06/12 01:55:24;;;;;;;7.47;2.90;;;17.70;99.90;;;;;;5056881;28;20028;-78
2021/06/12 01:57:50;;;;;;;11.70;2.92;;;17.70;99.90;;;;;;5075167;28;20025;-78
2021/06/12 02:00:16;;;;;;;8.27;2.75;;;17.70;99.90;;;;;;5057150;28;20027;-78
2021/06/12 02:02:43;;;;;;;7.20;3.10;;;17.70;99.90;;;;;;5074455;28;20031;-78
2021/06/12 02:05:14;;;;;;;8.90;3.05;;;17.80;99.90;;;;;;5075204;28;20020;-78
2021/06/12 02:07:42;;;;;;;11.57;3.30;;;17.70;99.90;;;;;;5075148;28;20032;-78
2021/06/12 02:10:10;;;;;;;13.73;2.78;;;17.70;99.90;;;;;;5074759;28;20362;-78
2021/06/12 02:12:36;;;;;;;9.63;2.63;;;17.70;99.90;;;;;;5074543;28;20044;-78
2021/06/12 02:15:04;;;;;;;6.18;2.53;;;17.70;99.90;;;;;;5075131;28;20039;-78
2021/06/12 02:17:30;;;;;;;13.82;2.65;;;17.70;99.90;;;;;;5056319;28;20425;-78
2021/06/12 02:19:57;;;;;;;10.70;2.75;;;17.70;99.90;;;;;;5074783;28;20028;-78
2021/06/12 02:22:23;;;;;;;10.40;2.42;;;17.70;99.90;;;;;;5074626;28;20111;-78
2021/06/12 02:24:49;;;;;;;8.93;3.13;;;17.70;99.90;;;;;;5074559;28;20052;-78
2021/06/12 02:27:19;;;;;;;12.27;2.60;;;17.80;99.90;;;;;;5057283;28;20016;-78
2021/06/12 02:29:46;;;;;;;5.35;2.40;;;17.70;99.90;;;;;;5057914;28;20029;-78
2021/06/12 02:32:13;;;;;;;10.70;2.70;;;17.70;99.90;;;;;;5058030;28;20064;-78
2021/06/12 02:34:38;;;;;;;11.93;3.25;;;17.70;99.90;;;;;;5057936;28;20032;-78
2021/06/12 02:37:06;;;;;;;8.05;2.25;;;17.70;99.90;;;;;;5076761;28;20376;-79
2021/06/12 02:39:32;;;;;;;8.93;2.20;;;17.70;99.90;;;;;;5076251;28;20021;-78
2021/06/12 02:41:58;;;;;;;10.40;3.40;;;17.80;99.90;;;;;;5076608;28;20021;-78
2021/06/12 02:44:24;;;;;;;8.15;2.40;;;17.90;99.90;;;;;;5074858;28;20054;-78
2021/06/12 02:46:50;;;;;;;10.32;2.97;;;17.90;99.90;;;;;;5056490;28;20424;-78
2021/06/12 02:49:19;;;;;;;8.35;2.80;;;17.80;99.90;;;;;;5074119;28;20021;-78
2021/06/12 02:51:51;;;;;;;9.88;3.13;;;17.80;99.90;;;;;;5074442;28;20032;-78
2021/06/12 02:54:22;;;;;;;9.50;2.72;;;17.80;99.90;;;;;;5055911;28;20097;-78
2021/06/12 02:56:47;;;;;;;8.75;3.58;;;17.80;99.90;;;;;;5074540;28;20020;-78
2021/06/12 02:59:17;;;;;;;6.60;2.22;;;17.80;99.90;;;;;;5055888;28;20028;-78
2021/06/12 03:01:43;;;;;;;14.90;2.95;;;17.80;99.90;;;;;;5074204;28;20029;-78
2021/06/12 03:04:15;;;;;;;6.32;2.25;;;17.70;99.90;;;;;;5074199;28;20416;-78
2021/06/12 03:06:44;;;;;;;8.25;2.08;;;17.70;99.90;;;;;;5056327;28;20024;-77
2021/06/12 03:09:14;;;;;;;9.30;2.75;;;17.70;99.90;;;;;;5056450;28;20051;-78
2021/06/12 03:11:41;;;;;;;6.60;2.30;;;17.70;99.90;;;;;;5056487;28;20020;-78
2021/06/12 03:14:09;;;;;;;5.95;2.65;;;17.70;99.90;;;;;;5056005;28;20025;-78
2021/06/12 03:16:36;;;;;;;;;;;17.70;99.90;;;;;;5074384;28;20016;-78
2021/06/12 03:19:02;;;;;;;6.80;2.20;;;17.70;99.90;;;;;;5074278;28;20273;-78
2021/06/12 03:21:29;;;;;;;13.02;3.28;;;17.90;99.90;;;;;;5055693;28;20021;-78
2021/06/12 03:23:57;;;;;;;9.40;2.95;;;17.80;99.90;;;;;;5055668;28;20052;-78
2021/06/12 03:26:25;;;;;;;6.13;2.22;;;17.70;99.90;;;;;;5073840;28;20059;-77
2021/06/12 03:28:51;;;;;;;9.55;2.03;;;17.80;99.90;;;;;;5073691;28;20378;-77
2021/06/12 03:31:18;;;;;;;7.85;2.42;;;17.70;99.90;;;;;;5073571;28;20021;-77
2021/06/12 03:33:44;;;;;;;13.75;3.30;;;17.70;99.90;;;;;;5073302;28;20016;-78
2021/06/12 03:36:11;;;;;;;7.65;2.45;;;17.70;99.90;;;;;;5074052;28;20027;-77
2021/06/12 03:38:36;;;;;;;7.82;2.15;;;17.80;99.90;;;;;;5073684;28;20025;-78
2021/06/12 03:41:04;;;;;;;7.25;2.50;;;17.80;99.90;;;;;;5076905;28;20008;-78
2021/06/12 03:43:30;;;;;;;11.23;2.70;;;17.70;99.90;;;;;;5076837;28;20028;-78
2021/06/12 03:45:58;;;;;;;6.70;2.50;;;17.70;99.90;;;;;;5077124;28;20056;-78
2021/06/12 03:48:24;;;;;;;9.00;2.25;;;17.70;99.90;;;;;;5059260;28;20067;-78
2021/06/12 03:50:52;;;;;;;5.32;2.30;;;17.70;99.90;;;;;;5078015;28;20029;-78
2021/06/12 03:53:20;;;;;;;5.13;2.38;;;17.70;99.90;;;;;;5077302;28;20017;-78
2021/06/12 03:55:48;;;;;;;5.53;2.25;;;17.70;99.90;;;;;;5076854;28;20032;-77
2021/06/12 03:58:15;;;;;;;8.10;1.70;;;17.70;99.90;;;;;;5077701;28;20039;-78
2021/06/12 04:00:41;;;;;;;6.03;1.75;;;17.70;99.90;;;;;;5077241;28;20028;-78
2021/06/12 04:03:06;;;;;;;6.50;2.13;;;17.70;99.90;;;;;;5076780;28;20025;-78
2021/06/12 04:05:32;;;;;;;11.00;1.83;;;17.60;99.90;;;;;;5059023;28;20016;-78
2021/06/12 04:07:57;;;;;;;6.07;2.10;;;17.70;99.90;;;;;;5059312;28;20021;-78
2021/06/12 04:10:23;;;;;;;7.90;2.17;;;17.70;99.90;;;;;;5076986;28;20115;-78
2021/06/12 04:12:49;;;;;;;5.75;2.08;;;17.70;99.90;;;;;;5058958;28;20040;-78
2021/06/12 04:15:14;;;;;;;5.00;1.70;;;17.60;99.90;;;;;;5077048;28;20024;-78
2021/06/12 04:17:41;;;;;;;5.65;1.60;;;17.60;99.90;;;;;;5077328;28;20020;-78
2021/06/12 04:20:07;;;;;;;7.45;1.80;;;17.50;99.90;;;;;;5077585;28;20407;-79
2021/06/12 04:22:33;;;;;;;8.55;2.28;;;17.60;99.90;;;;;;5077414;28;20058;-79
2021/06/12 04:24:58;;;;;;;10.57;2.08;;;17.60;99.90;;;;;;5059423;28;20021;-79
2021/06/12 04:27:24;;;;;;;6.90;1.67;;;17.60;99.90;;;;;;5059143;28;20036;-78
2021/06/12 04:29:49;;;;;;;4.10;1.58;;;17.60;99.90;;;;;;5077037;28;20046;-78
2021/06/12 04:32:15;;;;;;;4.28;1.48;;;17.60;99.90;;;;;;5059124;28;20027;-77
2021/06/12 04:34:40;;;;;;;5.22;1.83;;;17.60;99.90;;;;;;5058580;28;20039;-78
2021/06/12 04:37:08;;;;;;;7.07;2.33;;;17.70;99.90;;;;;;5058547;28;20033;-78
2021/06/12 04:39:33;;;;;;;7.43;2.42;;;17.60;99.90;;;;;;5058791;28;20048;-78
2021/06/12 04:41:59;;;;;;;6.97;1.58;;;17.60;99.90;;;;;;5076135;28;20064;-78
2021/06/12 04:44:24;;;;;;;6.07;1.60;;;17.60;99.90;;;;;;5076081;28;20111;-78
2021/06/12 04:46:50;;;;;;;3.25;1.40;;;17.60;99.90;;;;;;5076219;28;20077;-78
2021/06/12 04:49:15;;;;;;;5.43;1.50;;;17.60;99.90;;;;;;5057821;28;20013;-78
2021/06/12 04:51:41;;;;;;;15.13;1.50;;;17.60;99.90;;;;;;5056877;28;20116;-78
2021/06/12 04:54:07;;;;;;;6.03;1.33;;;17.60;99.90;;;;;;5077121;28;20477;-78
2021/06/12 04:56:33;;;;;;;6.40;1.50;;;17.60;99.90;;;;;;5058748;28;20020;-78
2021/06/12 04:58:58;;;;;;;5.85;1.77;;;17.60;99.90;;;;;;5077284;28;20369;-78
2021/06/12 05:01:24;;;;;;;7.60;2.05;;;17.60;99.90;;;;;;5061214;28;20036;-78
2021/06/12 05:03:49;;;;;;;3.88;1.15;;;17.50;99.90;;;;;;5063145;28;20154;-78
2021/06/12 05:06:15;;;;;;;4.97;2.03;;;17.60;99.90;;;;;;5077121;28;20520;-78
2021/06/12 05:08:40;;;;;;;8.57;2.00;;;17.70;99.90;;;;;;5059531;28;20025;-78
2021/06/12 05:11:06;;;;;;;4.63;1.27;;;17.70;99.90;;;;;;5058463;28;20024;-78
2021/06/12 05:13:33;;;;;;;4.18;1.58;;;17.80;99.90;;;;;;5076826;28;20477;-78
2021/06/12 05:15:59;;;;;;;2.67;0.98;;;17.80;99.90;;;;;;5059039;28;20393;-78
2021/06/12 05:18:31;;;;;;;7.88;1.50;;;17.90;99.90;;;;;;5076979;28;20025;-78
2021/06/12 05:20:57;;;;;;;3.45;1.02;;;18.00;99.90;;;;;;5077491;28;20032;-79
2021/06/12 05:23:23;;;;;;;6.20;1.40;;;18.00;99.90;;;;;;5058986;28;20485;-79
2021/06/12 05:25:48;;;;;;;4.18;1.17;;;18.10;99.90;;;;;;5058642;28;20013;-78
2021/06/12 05:28:14;;;;;;;5.75;1.77;;;18.10;99.90;;;;;;5076098;28;20035;-78
2021/06/12 05:30:40;;;;;;;5.22;1.83;;;18.10;99.90;;;;;;5058104;28;20024;-78
2021/06/12 05:33:05;;;;;;;4.53;0.95;;;18.30;99.90;;;;;;5076331;28;20024;-79
2021/06/12 05:35:31;;;;;;;6.10;1.42;;;18.40;99.90;;;;;;5075894;28;20094;-78
2021/06/12 05:37:56;;;;;;;4.38;1.10;;;18.40;99.90;;;;;;5057562;28;20035;-79
2021/06/12 05:40:22;;;;;;;3.22;1.02;;;18.50;99.90;;;;;;5076576;28;20020;-78
2021/06/12 05:42:47;;;;;;;4.15;0.63;;;18.70;99.90;;;;;;5077212;28;20070;-78
2021/06/12 05:45:13;;;;;;;3.60;0.95;;;18.80;99.90;;;;;;5059375;28;20013;-79
2021/06/12 05:47:39;;;;;;;3.03;0.65;;;18.80;99.90;;;;;;5058480;28;20021;-78
2021/06/12 05:50:06;;;;;;;4.65;0.70;;;18.90;99.90;;;;;;5057424;28;20024;-78
2021/06/12 05:52:31;;;;;;;5.38;0.90;;;18.90;99.90;;;;;;5075378;28;20116;-78
2021/06/12 05:54:57;;;;;;;4.07;1.42;;;19.00;99.90;;;;;;5075284;28;20056;-78
2021/06/12 05:57:23;;;;;;;6.80;1.40;;;19.10;99.90;;;;;;5075189;28;20029;-78
2021/06/12 05:59:48;;;;;;;6.07;0.65;;;19.10;99.90;;;;;;5057292;28;20024;-78
2021/06/12 06:02:14;;;;;;;3.00;1.13;;;19.10;99.90;;;;;;5056503;28;20037;-78
2021/06/12 06:04:39;;;;;;;6.53;0.77;;;19.20;99.90;;;;;;5075175;28;20043;-78
2021/06/12 06:07:05;;;;;;;2.85;0.40;;;19.30;99.90;;;;;;5074838;28;20020;-78
2021/06/12 06:09:30;;;;;;;3.58;0.80;;;19.30;99.90;;;;;;5075459;28;20112;-78
2021/06/12 06:11:56;;;;;;;4.40;0.30;;;19.40;99.90;;;;;;5075270;28;20059;-78
2021/06/12 06:14:21;;;;;;;1.73;0.65;;;19.50;99.90;;;;;;5076277;28;20031;-78
2021/06/12 06:16:47;;;;;;;3.20;0.63;;;19.70;99.90;;;;;;5058019;28;20081;-78
2021/06/12 06:19:13;;;;;;;1.08;0.47;;;20.10;99.90;;;;;;5075844;28;20051;-78
2021/06/12 06:21:39;;;;;;;2.70;0.20;;;20.20;99.90;;;;;;5074815;28;20036;-78
2021/06/12 06:24:05;;;;;;;0.80;0.20;;;20.40;99.90;;;;;;5075340;28;20020;-78
2021/06/12 06:26:31;;;;;;;4.22;0.50;;;20.50;99.90;;;;;;5075286;28;20393;-78
2021/06/12 06:28:57;;;;;;;2.20;0.40;;;20.50;99.90;;;;;;5075622;28;20017;-78
2021/06/12 06:31:22;;;;;;;1.50;0.30;;;20.40;99.90;;;;;;5075598;28;20032;-78
2021/06/12 06:33:48;;;;;;;5.90;0.50;;;20.40;99.90;;;;;;5057547;28;20020;-79
2021/06/12 06:36:14;;;;;;;1.75;0.20;;;20.30;99.90;;;;;;5056910;28;20016;-79
2021/06/12 06:38:40;;;;;;;2.20;0.70;;;20.40;99.90;;;;;;5075467;28;20385;-79
2021/06/12 06:41:07;;;;;;;4.22;0.40;;;20.40;99.90;;;;;;5057226;28;20024;-79
2021/06/12 06:43:32;;;;;;;3.33;0.30;;;20.50;99.90;;;;;;5075335;28;20058;-79
2021/06/12 06:45:58;;;;;;;4.03;0.15;;;20.50;99.90;;;;;;5075651;28;20091;-78
2021/06/12 06:48:24;;;;;;;3.83;0.20;;;20.50;99.90;;;;;;5074643;28;20032;-79
2021/06/12 06:50:49;;;;;;;3.92;0.65;;;20.50;99.90;;;;;;5075804;28;20012;-79
2021/06/12 06:53:16;;;;;;;2.75;0.20;;;20.50;99.90;;;;;;5057266;28;20060;-79
2021/06/12 06:55:42;;;;;;;3.15;0.30;;;20.50;99.90;;;;;;5075697;28;20381;-78
2021/06/12 06:58:08;;;;;;;3.15;0.20;;;20.60;99.90;;;;;;5057003;28;20033;-79
2021/06/12 07:00:33;;;;;;;2.13;0.28;;;20.70;99.90;;;;;;5075697;28;20024;-80
2021/06/12 07:03:00;;;;;;;5.03;0.22;;;20.70;99.90;;;;;;5075546;28;20029;-79
2021/06/12 07:05:26;;;;;;;1.38;0.13;;;20.70;99.90;;;;;;5075675;28;20017;-78
2021/06/12 07:07:52;;;;;;;5.18;0.90;;;20.70;99.90;;;;;;5074777;28;20036;-79
2021/06/12 07:10:18;;;;;;;3.05;0.57;;;20.80;99.90;;;;;;5057668;28;20024;-79
2021/06/12 07:12:44;;;;;;;5.90;0.70;;;20.80;99.90;;;;;;5074842;28;20046;-79
2021/06/12 07:15:11;;;;;;;3.75;0.00;;;20.90;99.90;;;;;;5075639;28;20024;-79
2021/06/12 07:17:37;;;;;;;5.32;0.20;;;20.90;99.90;;;;;;5078880;28;20040;-79
2021/06/12 07:20:05;;;;;;;1.88;0.25;;;21.00;99.80;;;;;;5079391;28;20385;-79
2021/06/12 07:22:31;;;;;;;4.57;0.40;;;20.90;99.20;;;;;;5061535;28;20051;-79
2021/06/12 07:24:56;;;;;;;2.40;0.47;;;21.00;99.20;;;;;;5061319;28;20020;-79
2021/06/12 07:27:22;;;;;;;2.50;0.22;;;21.00;98.30;;;;;;5060944;28;20028;-79
2021/06/12 07:29:48;;;;;;;1.95;0.63;;;21.20;97.90;;;;;;5078634;28;20012;-79
2021/06/12 07:32:14;;;;;;;1.98;0.32;;;21.30;96.00;;;;;;5078838;28;20059;-79
2021/06/12 07:34:40;;;;;;;3.85;0.22;;;21.30;96.60;;;;;;5078492;28;20132;-79
2021/06/12 07:37:06;;;;;;;1.65;0.10;;;21.50;96.20;;;;;;5060739;28;20028;-79
2021/06/12 07:39:32;;;;;;;1.48;0.10;;;21.50;95.50;;;;;;5078695;28;20492;-79
2021/06/12 07:41:57;;;;;;;3.38;0.10;;;21.50;95.50;;;;;;5077821;28;20028;-80
2021/06/12 07:44:23;;;;;;;2.70;0.32;;;21.50;94.70;;;;;;5076625;28;20013;-79
2021/06/12 07:46:49;;;;;;;0.85;0.00;;;21.50;94.30;;;;;;5076673;28;20031;-79
2021/06/12 07:49:15;;;;;;;1.60;0.05;;;21.50;94.90;;;;;;5059053;28;20017;-78
2021/06/12 07:51:42;;;;;;;3.20;0.20;;;21.50;94.20;;;;;;5078667;28;20378;-79
2021/06/12 07:54:12;;;;;;;2.47;0.05;;;21.50;94.60;;;;;;5078553;28;20020;-79
2021/06/12 07:56:37;;;;;;;5.75;0.40;;;21.40;94.60;;;;;;5040314;28;20051;-79
2021/06/12 07:59:06;;;;;;;4.10;0.20;;;21.40;94.30;;;;;;5058225;28;20415;-80
2021/06/12 08:01:33;;;;;;;2.65;0.20;;;21.40;95.20;;;;;;5077237;28;20035;-79
2021/06/12 08:03:59;;;;;;;3.40;0.30;;;21.50;94.70;;;;;;5059954;28;20051;-80
2021/06/12 08:06:25;;;;;;;2.63;0.30;;;21.60;94.30;;;;;;5060026;28;20036;-80
2021/06/12 08:08:50;;;;;;;3.72;0.10;;;21.80;94.00;;;;;;5078137;28;20013;-78
2021/06/12 08:11:16;;;;;;;2.92;1.08;;;21.80;90.40;;;;;;5059523;28;20031;-78
2021/06/12 08:13:42;;;;;;;2.22;0.30;;;21.80;90.70;;;;;;5077765;28;20048;-79
2021/06/12 08:16:08;;;;;;;1.35;0.30;;;21.80;90.50;;;;;;5077717;28;20033;-79
2021/06/12 08:18:34;;;;;;;2.75;0.10;;;22.00;89.30;;;;;;5059054;28;20033;-79
2021/06/12 08:21:00;;;;;;;1.95;0.00;;;22.00;89.60;;;;;;5077470;28;20033;-79
2021/06/12 08:23:26;;;;;;;1.92;0.40;;;22.20;90.40;;;;;;5059812;28;20024;-78
2021/06/12 08:25:52;;;;;;;3.33;0.57;;;22.20;88.20;;;;;;5077546;28;20024;-78
2021/06/12 08:28:18;;;;;;;3.13;0.10;;;22.20;88.30;;;;;;5077384;28;20074;-78
2021/06/12 08:30:43;;;;;;;1.58;0.20;;;22.40;87.70;;;;;;5077175;28;20048;-78
2021/06/12 08:33:10;;;;;;;2.97;0.05;;;22.50;86.20;;;;;;5059362;28;20021;-78
2021/06/12 08:35:36;;;;;;;7.22;0.98;;;22.50;88.40;;;;;;5077186;28;20040;-78
2021/06/12 08:38:02;;;;;;;2.67;0.13;;;22.60;88.80;;;;;;5078141;28;20381;-78
2021/06/12 08:40:29;;;;;;;3.38;0.10;;;22.80;87.20;;;;;;5076789;28;20499;-76
2021/06/12 08:42:55;;;;;;;2.20;0.00;;;22.80;83.00;;;;;;5074973;28;20029;-76
2021/06/12 08:45:27;;;;;;;4.18;0.10;;;22.80;80.90;;;;;;5057017;28;20025;-77
2021/06/12 08:47:54;;;;;;;1.65;0.10;;;22.90;83.90;;;;;;5075619;28;20378;-78
2021/06/12 08:50:23;;;;;;;3.78;0.17;;;22.80;83.70;;;;;;5076374;28;20025;-78
2021/06/12 08:52:50;;;;;;;6.32;0.20;;;22.90;84.10;;;;;;5059643;28;20119;-81
2021/06/12 08:55:17;;;;;;;1.40;0.35;;;23.00;83.80;;;;;;5060248;28;20028;-79
2021/06/12 08:57:43;;;;;;;2.92;0.10;;;23.20;80.40;;;;;;5076710;28;20481;-81
2021/06/12 09:00:09;;;;;;;0.57;0.10;;;23.30;84.20;;;;;;5079016;28;20027;-82
2021/06/12 09:03:00;;;;;;;5.28;0.38;;;23.60;84.50;;;;;;5078783;28;20024;-81
2021/06/12 09:05:49;;;;;;;4.63;0.28;;;23.60;75.50;;;;;;5078413;28;20074;-82
2021/06/12 09:08:21;;;;;;;6.03;0.57;;;23.60;76.50;;;;;;5078246;28;20052;-81
2021/06/12 09:11:10;;;;;;;1.80;0.10;;;23.50;77.80;;;;;;5060882;28;20047;-81
2021/06/12 09:13:48;;;;;;;1.38;0.20;;;23.50;78.80;;;;;;5078738;28;20411;-82
2021/06/12 09:16:23;;;;;;;0.73;0.00;;;23.60;78.00;;;;;;5059700;28;20115;-82
2021/06/12 09:18:50;;;;;;;0.10;0.00;;;23.70;76.80;;;;;;5078184;28;20027;-82
2021/06/12 09:21:43;;;;;;;2.42;0.52;;;23.80;74.60;;;;;;5077537;28;20095;-81
2021/06/12 09:24:34;;;;;;;3.33;0.68;;;23.90;70.00;;;;;;5030536;28;20037;-82
2021/06/12 09:27:12;;;;;;;3.35;0.52;;;24.00;72.90;;;;;;5059842;28;20047;-82
2021/06/12 09:29:46;;;;;;;5.53;0.20;;;24.00;71.90;;;;;;5059574;28;20028;-81
2021/06/12 09:32:19;;;;;;;1.70;0.20;;;23.90;68.30;;;;;;5059332;28;20267;-82
2021/06/12 09:34:47;;;;;;;2.20;0.55;;;23.90;71.90;;;;;;5059562;28;20032;-82
2021/06/12 09:37:21;;;;;;;3.92;0.10;;;23.90;70.20;;;;;;5077171;28;20376;-82
2021/06/12 09:40:13;;;;;;;5.57;0.40;;;24.10;69.10;;;;;;5077272;28;20016;-81
2021/06/12 09:42:47;;;;;;;2.45;0.15;;;24.20;69.30;;;;;;5059081;28;20059;-81
2021/06/12 09:45:17;;;;;;;1.90;0.43;;;24.00;67.50;;;;;;5074973;28;20524;-81
2021/06/12 09:47:43;;;;;;;1.13;0.00;;;23.90;69.80;;;;;;5077562;28;20097;-81
2021/06/12 09:50:10;;;;;;;2.70;0.08;;;23.80;67.60;;;;;;5077239;28;20032;-81
2021/06/12 09:52:47;;;;;;;0.63;0.00;;;23.70;67.90;;;;;;5058943;28;20032;-81
2021/06/12 09:55:26;;;;;;;3.05;0.17;;;23.80;69.40;;;;;;5059538;28;20028;-81
2021/06/12 09:57:53;;;;;;;2.70;0.00;;;23.90;67.10;;;;;;5058601;28;20067;-81
2021/06/12 10:00:35;;;;;;;2.42;0.20;;;23.90;64.00;;;;;;5077285;28;20055;-81
2021/06/12 10:03:02;;;;;;;3.97;0.10;;;24.00;65.30;;;;;;5076956;28;20431;-81
2021/06/12 10:05:28;;;;;;;2.75;0.20;;;24.30;65.60;;;;;;5077138;28;20020;-81
2021/06/12 10:07:54;;;;;;;5.65;0.10;;;24.50;66.40;;;;;;5058864;28;20023;-81
2021/06/12 10:10:20;;;;;;;2.50;0.00;;;24.60;64.20;;;;;;5076600;28;20017;-81
2021/06/12 10:12:46;;;;;;;4.78;0.10;;;24.70;65.00;;;;;;5059042;28;20029;-81
2021/06/12 10:15:14;;;;;;;2.92;0.00;;;24.80;61.30;;;;;;5059039;28;20119;-80
2021/06/12 10:17:48;;;;;;;4.43;0.30;;;24.60;62.20;;;;;;5077474;28;20500;-81
2021/06/12 10:20:18;;;;;;;0.55;0.10;;;24.50;62.40;;;;;;5077207;28;20398;-81
2021/06/12 10:22:45;;;;;;;1.15;0.00;;;24.70;63.80;;;;;;5076976;28;20028;-81
2021/06/12 10:25:16;;;;;;;2.83;0.00;;;24.60;60.00;;;;;;5058859;28;20092;-81
2021/06/12 10:27:42;;;;;;;2.83;0.20;;;24.70;61.00;;;;;;5058936;28;20028;-81
2021/06/12 10:30:11;;;;;;;0.82;0.00;;;24.80;61.50;;;;;;5076796;28;20363;-81
2021/06/12 10:32:47;;;;;;;2.65;0.13;;;24.80;61.20;;;;;;5058593;28;20024;-81
2021/06/12 10:35:21;;;;;;;2.97;0.10;;;24.80;60.20;;;;;;5059269;28;20086;-81
2021/06/12 10:38:00;;;;;;;1.35;0.10;;;24.90;60.90;;;;;;5076931;28;20102;-80
2021/06/12 10:40:38;;;;;;;4.65;0.45;;;24.80;58.70;;;;;;5058579;28;20043;-80
2021/06/12 10:43:08;;;;;;;2.77;0.00;;;24.80;60.90;;;;;;5057973;28;20033;-80
2021/06/12 10:45:34;;;;;;;1.17;0.20;;;24.90;60.70;;;;;;5075845;28;20267;-80
2021/06/12 10:47:59;;;;;;;0.40;0.00;;;24.90;60.70;;;;;;5058065;28;20055;-80
2021/06/12 10:50:25;;;;;;;1.73;0.17;;;25.00;60.90;;;;;;5078120;28;20397;-80
2021/06/12 10:52:52;;;;;;;4.18;0.40;;;25.00;59.20;;;;;;5080499;28;20028;-80
2021/06/12 10:55:40;;;;;;;3.53;1.08;;;24.80;60.20;;;;;;5062809;28;20016;-80
2021/06/12 10:58:31;;;;;;;1.75;0.00;;;24.90;59.90;;;;;;5062131;28;20070;-80
2021/06/12 11:01:06;;;;;;;3.80;0.10;;;25.20;62.40;;;;;;5062487;28;20032;-80
2021/06/12 11:09:13;;;;;;;6.47;0.35;;;25.90;60.70;;;;;;5079582;28;20060;-80
2021/06/12 11:11:44;;;;;;;1.98;0.28;;;25.90;57.90;;;;;;5062405;28;20031;-80
2021/06/12 11:14:21;;;;;;;3.58;0.30;;;25.80;58.20;;;;;;5062409;28;20024;-81
2021/06/12 11:17:06;;;;;;;2.97;0.25;;;25.70;57.30;;;;;;5062380;28;20025;-81
2021/06/12 11:19:32;;;;;;;7.05;0.10;;;26.00;58.70;;;;;;5080477;28;20447;-81
2021/06/12 11:22:40;;;;;;;1.85;0.45;;;25.90;56.10;;;;;;5062621;28;20028;-81
2021/06/12 11:25:08;;;;;;;1.77;0.20;;;25.40;57.10;;;;;;4979416;28;20030;-80
2021/06/12 11:27:39;;;;;;;2.92;0.10;;;25.20;57.80;;;;;;4979093;28;20031;-80
2021/06/12 11:30:17;;;;;;;3.03;0.00;;;24.90;56.10;;;;;;5023723;28;20035;-80
2021/06/12 11:32:45;;;;;;;2.10;0.38;;;25.10;59.50;;;;;;5062116;28;20040;-80
2021/06/12 11:35:12;;;;;;;3.47;0.52;;;25.50;57.10;;;;;;5079429;28;20029;-81
2021/06/12 11:37:50;;;;;;;0.17;0.00;;;25.70;56.60;;;;;;5080240;28;20029;-80
2021/06/12 11:40:21;;;;;;;0.77;0.00;;;25.60;56.20;;;;;;5078499;28;20143;-80
2021/06/12 11:42:53;;;;;;;1.02;0.00;;;25.90;54.80;;;;;;5080039;28;20081;-81
2021/06/12 11:45:26;;;;;;;4.28;0.15;;;25.90;56.60;;;;;;5079161;28;20020;-81
2021/06/12 11:47:53;;;;;;;2.17;0.00;;;26.00;54.40;;;;;;5060900;28;20020;-81
2021/06/12 11:50:28;;;;;;;1.67;0.30;;;26.10;56.10;;;;;;5061220;28;20408;-80
2021/06/12 11:52:53;;;;;;;2.70;0.10;;;26.30;55.30;;;;;;5080593;28;20027;-81
2021/06/12 11:55:27;;;;;;;1.38;0.00;;;26.60;55.30;;;;;;5062071;28;20028;-81
2021/06/12 11:57:54;;;;;;;2.88;0.20;;;26.20;51.00;;;;;;5079694;28;20060;-81
2021/06/12 12:00:26;;;;;;;1.15;0.00;;;26.40;53.10;;;;;;5061103;28;20428;-80
2021/06/12 12:03:07;;;;;;;0.93;0.10;;;26.60;54.30;;;;;;5061714;28;20096;-80
2021/06/12 12:05:38;;;;;;;1.85;0.17;;;26.80;52.70;;;;;;5061143;28;20390;-80
2021/06/12 12:08:10;;;;;;;0.70;0.00;;;27.00;51.30;;;;;;5060774;28;20024;-78
2021/06/12 12:10:37;;;;;;;1.77;0.10;;;27.20;52.20;;;;;;5078051;28;20374;-78
2021/06/12 12:13:03;;;;;;;2.10;0.08;;;27.40;51.80;;;;;;5078234;28;20025;-78
2021/06/12 12:15:35;;;;;;;0.95;0.00;;;27.40;51.00;;;;;;5060122;28;20489;-78
2021/06/12 12:18:02;;;;;;;2.85;0.40;;;27.60;47.70;;;;;;5077563;28;20078;-78
2021/06/12 12:20:28;;;;;;;2.25;0.17;;;28.70;51.20;;;;;;5059424;28;20020;-78
2021/06/12 12:22:54;;;;;;;1.33;0.57;;;27.90;51.30;;;;;;5058507;28;20401;-78
2021/06/12 12:25:27;;;;;;;2.03;0.38;;;28.10;48.60;;;;;;5078066;28;20047;-78
2021/06/12 12:28:09;;;;;;;3.92;0.00;;;27.90;49.10;;;;;;5078869;28;20028;-79
2021/06/12 12:30:36;;;;;;;1.70;0.00;;;27.80;50.30;;;;;;5061833;28;20022;-79
2021/06/12 12:33:09;;;;;;;2.00;0.00;;;27.40;48.60;;;;;;5078438;28;20050;-79
2021/06/12 12:35:35;;;;;;;3.72;0.10;;;26.90;50.10;;;;;;5137561;22;20067;-78
2021/06/12 12:38:11;;;;;;;6.50;0.52;;;27.80;51.70;;;;;;5059874;28;20025;-78
2021/06/12 12:40:37;;;;;;;0.65;0.00;;;27.20;50.10;;;;;;5059944;28;20016;-78
2021/06/12 12:43:04;;;;;;;1.70;0.03;;;27.10;50.70;;;;;;5077720;28;20064;-78
2021/06/12 12:45:29;;;;;;;0.93;0.00;;;27.40;50.50;;;;;;5077584;28;20021;-78
2021/06/12 12:47:58;;;;;;;3.05;0.00;;;27.70;49.20;;;;;;5077690;28;20089;-78
2021/06/12 12:50:23;;;;;;;;;;;27.90;48.50;;;;;;5059223;28;20107;-78
2021/06/12 12:53:12;;;;;;;0.65;0.00;;;28.00;46.50;;;;;;5077023;28;19940;-78
2021/06/12 12:55:39;;;;;;;1.65;0.00;;;27.90;47.40;;;;;;5058374;28;20044;-78
2021/06/12 12:58:06;;;;;;;1.75;0.20;;;28.10;47.70;;;;;;5077254;28;20527;-78